sensor_id;sensor_type;location;lat;lon;timestamp;P1;durP1;ratioP1;P2;durP2;ratioP2
30519;SDS011;17300;50.374;8.006;2024-01-16T00:00:12;1.43;;;0.87;;
30519;SDS011;17300;50.374;8.006;2024-01-16T00:02:39;2.47;;;0.90;;
30519;SDS011;17300;50.374;8.006;2024-01-16T00:05:06;2.60;;;1.10;;
30519;SDS011;17300;50.374;8.006;2024-01-16T00:07:34;2.63;;;1.13;;
30519;SDS011;17300;50.374;8.006;2024-01-16T00:10:06;2.70;;;1.17;;
30519;SDS011;17300;50.374;8.006;2024-01-16T00:12:35;1.93;;;1.00;;
30519;SDS011;17300;50.374;8.006;2024-01-16T00:15:01;2.97;;;1.60;;
30519;SDS011;17300;50.374;8.006;2024-01-16T00:17:28;2.83;;;1.30;;
30519;SDS011;17300;50.374;8.006;2024-01-16T00:19:55;2.83;;;1.30;;
30519;SDS011;17300;50.374;8.006;2024-01-16T00:22:25;1.63;;;1.43;;
30519;SDS011;17300;50.374;8.006;2024-01-16T00:24:52;2.27;;;1.20;;
30519;SDS011;17300;50.374;8.006;2024-01-16T00:27:18;2.40;;;1.20;;
30519;SDS011;17300;50.374;8.006;2024-01-16T00:29:46;2.83;;;1.20;;
30519;SDS011;17300;50.374;8.006;2024-01-16T00:32:13;1.83;;;1.10;;
30519;SDS011;17300;50.374;8.006;2024-01-16T00:34:41;1.83;;;1.10;;
30519;SDS011;17300;50.374;8.006;2024-01-16T00:37:07;1.23;;;1.13;;
30519;SDS011;17300;50.374;8.006;2024-01-16T00:39:34;3.00;;;1.33;;
30519;SDS011;17300;50.374;8.006;2024-01-16T00:42:01;2.60;;;1.47;;
30519;SDS011;17300;50.374;8.006;2024-01-16T00:44:28;2.40;;;1.40;;
30519;SDS011;17300;50.374;8.006;2024-01-16T00:46:56;2.97;;;1.43;;
30519;SDS011;17300;50.374;8.006;2024-01-16T00:49:22;2.07;;;1.30;;
30519;SDS011;17300;50.374;8.006;2024-01-16T00:51:49;1.67;;;1.20;;
30519;SDS011;17300;50.374;8.006;2024-01-16T00:54:16;2.00;;;1.33;;
30519;SDS011;17300;50.374;8.006;2024-01-16T00:56:42;3.53;;;1.30;;
30519;SDS011;17300;50.374;8.006;2024-01-16T00:59:09;2.83;;;1.33;;
30519;SDS011;17300;50.374;8.006;2024-01-16T01:01:36;3.07;;;1.40;;
30519;SDS011;17300;50.374;8.006;2024-01-16T01:04:05;1.63;;;1.30;;
30519;SDS011;17300;50.374;8.006;2024-01-16T01:06:31;1.43;;;1.23;;
30519;SDS011;17300;50.374;8.006;2024-01-16T01:08:58;2.13;;;1.40;;
30519;SDS011;17300;50.374;8.006;2024-01-16T01:11:25;2.23;;;1.23;;
30519;SDS011;17300;50.374;8.006;2024-01-16T01:13:52;2.60;;;1.50;;
30519;SDS011;17300;50.374;8.006;2024-01-16T01:16:18;3.33;;;1.53;;
30519;SDS011;17300;50.374;8.006;2024-01-16T01:18:45;4.03;;;1.30;;
30519;SDS011;17300;50.374;8.006;2024-01-16T01:21:13;2.67;;;1.30;;
30519;SDS011;17300;50.374;8.006;2024-01-16T01:23:40;2.73;;;1.50;;
30519;SDS011;17300;50.374;8.006;2024-01-16T01:26:06;2.93;;;1.30;;
30519;SDS011;17300;50.374;8.006;2024-01-16T01:28:33;1.67;;;1.20;;
30519;SDS011;17300;50.374;8.006;2024-01-16T01:31:00;1.40;;;1.30;;
30519;SDS011;17300;50.374;8.006;2024-01-16T01:33:28;2.93;;;1.23;;
30519;SDS011;17300;50.374;8.006;2024-01-16T01:35:54;2.67;;;1.63;;
30519;SDS011;17300;50.374;8.006;2024-01-16T01:38:22;1.90;;;1.40;;
30519;SDS011;17300;50.374;8.006;2024-01-16T01:40:49;3.00;;;1.30;;
30519;SDS011;17300;50.374;8.006;2024-01-16T01:43:22;1.53;;;1.30;;
30519;SDS011;17300;50.374;8.006;2024-01-16T01:45:54;3.60;;;1.50;;
30519;SDS011;17300;50.374;8.006;2024-01-16T01:48:34;3.57;;;1.50;;
30519;SDS011;17300;50.374;8.006;2024-01-16T01:51:01;2.00;;;1.47;;
30519;SDS011;17300;50.374;8.006;2024-01-16T01:53:30;3.63;;;1.50;;
30519;SDS011;17300;50.374;8.006;2024-01-16T01:55:59;2.27;;;1.40;;
30519;SDS011;17300;50.374;8.006;2024-01-16T01:58:30;3.53;;;1.70;;
30519;SDS011;17300;50.374;8.006;2024-01-16T02:00:57;3.03;;;1.40;;
30519;SDS011;17300;50.374;8.006;2024-01-16T02:03:25;2.87;;;1.83;;
30519;SDS011;17300;50.374;8.006;2024-01-16T02:05:54;2.97;;;1.67;;
30519;SDS011;17300;50.374;8.006;2024-01-16T02:08:21;2.93;;;1.60;;
30519;SDS011;17300;50.374;8.006;2024-01-16T02:10:50;5.43;;;1.90;;
30519;SDS011;17300;50.374;8.006;2024-01-16T02:13:18;1.57;;;1.37;;
30519;SDS011;17300;50.374;8.006;2024-01-16T02:15:48;3.23;;;1.77;;
30519;SDS011;17300;50.374;8.006;2024-01-16T02:18:15;1.93;;;1.67;;
30519;SDS011;17300;50.374;8.006;2024-01-16T02:20:42;2.77;;;1.90;;
30519;SDS011;17300;50.374;8.006;2024-01-16T02:23:08;3.93;;;1.90;;
30519;SDS011;17300;50.374;8.006;2024-01-16T02:25:39;2.43;;;1.80;;
30519;SDS011;17300;50.374;8.006;2024-01-16T02:28:07;2.57;;;1.77;;
30519;SDS011;17300;50.374;8.006;2024-01-16T02:30:34;2.33;;;1.70;;
30519;SDS011;17300;50.374;8.006;2024-01-16T02:33:01;2.97;;;2.00;;
30519;SDS011;17300;50.374;8.006;2024-01-16T02:35:28;2.73;;;1.80;;
30519;SDS011;17300;50.374;8.006;2024-01-16T02:37:55;3.03;;;1.90;;
30519;SDS011;17300;50.374;8.006;2024-01-16T02:40:22;1.80;;;1.60;;
30519;SDS011;17300;50.374;8.006;2024-01-16T02:42:49;2.73;;;1.80;;
30519;SDS011;17300;50.374;8.006;2024-01-16T02:45:16;3.10;;;1.80;;
30519;SDS011;17300;50.374;8.006;2024-01-16T02:47:43;2.33;;;1.63;;
30519;SDS011;17300;50.374;8.006;2024-01-16T02:50:10;2.53;;;1.97;;
30519;SDS011;17300;50.374;8.006;2024-01-16T02:52:37;2.80;;;1.80;;
30519;SDS011;17300;50.374;8.006;2024-01-16T02:55:04;2.90;;;1.87;;
30519;SDS011;17300;50.374;8.006;2024-01-16T02:57:31;2.33;;;1.70;;
30519;SDS011;17300;50.374;8.006;2024-01-16T02:59:59;2.70;;;1.90;;
30519;SDS011;17300;50.374;8.006;2024-01-16T03:02:26;2.70;;;1.77;;
30519;SDS011;17300;50.374;8.006;2024-01-16T03:04:52;4.03;;;1.83;;
30519;SDS011;17300;50.374;8.006;2024-01-16T03:07:19;3.67;;;2.00;;
30519;SDS011;17300;50.374;8.006;2024-01-16T03:09:46;3.57;;;1.90;;
30519;SDS011;17300;50.374;8.006;2024-01-16T03:12:13;5.20;;;2.60;;
30519;SDS011;17300;50.374;8.006;2024-01-16T03:14:39;3.83;;;2.10;;
30519;SDS011;17300;50.374;8.006;2024-01-16T03:17:07;2.80;;;1.93;;
30519;SDS011;17300;50.374;8.006;2024-01-16T03:19:34;3.13;;;1.80;;
30519;SDS011;17300;50.374;8.006;2024-01-16T03:22:01;3.13;;;2.00;;
30519;SDS011;17300;50.374;8.006;2024-01-16T03:24:28;3.83;;;2.17;;
30519;SDS011;17300;50.374;8.006;2024-01-16T03:26:55;2.40;;;2.00;;
30519;SDS011;17300;50.374;8.006;2024-01-16T03:29:22;4.83;;;2.07;;
30519;SDS011;17300;50.374;8.006;2024-01-16T03:31:48;2.50;;;2.10;;
30519;SDS011;17300;50.374;8.006;2024-01-16T03:34:16;2.53;;;1.73;;
30519;SDS011;17300;50.374;8.006;2024-01-16T03:36:43;5.60;;;2.17;;
30519;SDS011;17300;50.374;8.006;2024-01-16T03:39:09;3.57;;;2.00;;
30519;SDS011;17300;50.374;8.006;2024-01-16T03:41:37;4.50;;;2.40;;
30519;SDS011;17300;50.374;8.006;2024-01-16T03:44:03;3.07;;;1.83;;
30519;SDS011;17300;50.374;8.006;2024-01-16T03:46:30;3.70;;;2.10;;
30519;SDS011;17300;50.374;8.006;2024-01-16T03:48:57;3.23;;;2.30;;
30519;SDS011;17300;50.374;8.006;2024-01-16T03:51:25;4.20;;;2.10;;
30519;SDS011;17300;50.374;8.006;2024-01-16T03:53:51;4.70;;;2.37;;
30519;SDS011;17300;50.374;8.006;2024-01-16T03:56:18;3.70;;;2.10;;
30519;SDS011;17300;50.374;8.006;2024-01-16T03:58:45;4.63;;;2.10;;
30519;SDS011;17300;50.374;8.006;2024-01-16T04:01:11;3.17;;;2.00;;
30519;SDS011;17300;50.374;8.006;2024-01-16T04:03:39;5.20;;;1.80;;
30519;SDS011;17300;50.374;8.006;2024-01-16T04:06:13;2.47;;;1.80;;
30519;SDS011;17300;50.374;8.006;2024-01-16T04:08:42;2.97;;;1.80;;
30519;SDS011;17300;50.374;8.006;2024-01-16T04:11:11;2.67;;;1.97;;
30519;SDS011;17300;50.374;8.006;2024-01-16T04:13:38;3.63;;;2.00;;
30519;SDS011;17300;50.374;8.006;2024-01-16T04:16:05;3.20;;;2.17;;
30519;SDS011;17300;50.374;8.006;2024-01-16T04:18:34;4.07;;;2.30;;
30519;SDS011;17300;50.374;8.006;2024-01-16T04:21:01;3.83;;;1.97;;
30519;SDS011;17300;50.374;8.006;2024-01-16T04:23:28;3.20;;;1.90;;
30519;SDS011;17300;50.374;8.006;2024-01-16T04:25:56;4.07;;;2.33;;
30519;SDS011;17300;50.374;8.006;2024-01-16T04:28:23;4.53;;;1.87;;
30519;SDS011;17300;50.374;8.006;2024-01-16T04:30:49;2.87;;;1.77;;
30519;SDS011;17300;50.374;8.006;2024-01-16T04:33:16;2.50;;;1.60;;
30519;SDS011;17300;50.374;8.006;2024-01-16T04:35:44;3.63;;;2.00;;
30519;SDS011;17300;50.374;8.006;2024-01-16T04:38:11;2.07;;;1.67;;
30519;SDS011;17300;50.374;8.006;2024-01-16T04:40:37;3.23;;;2.00;;
30519;SDS011;17300;50.374;8.006;2024-01-16T04:43:05;4.30;;;2.13;;
30519;SDS011;17300;50.374;8.006;2024-01-16T04:45:32;3.57;;;2.10;;
30519;SDS011;17300;50.374;8.006;2024-01-16T04:47:59;3.33;;;2.03;;
30519;SDS011;17300;50.374;8.006;2024-01-16T04:50:25;3.00;;;2.03;;
30519;SDS011;17300;50.374;8.006;2024-01-16T04:52:56;5.50;;;2.37;;
30519;SDS011;17300;50.374;8.006;2024-01-16T04:55:24;4.10;;;2.00;;
30519;SDS011;17300;50.374;8.006;2024-01-16T04:57:51;3.07;;;2.20;;
30519;SDS011;17300;50.374;8.006;2024-01-16T05:00:19;2.87;;;1.97;;
30519;SDS011;17300;50.374;8.006;2024-01-16T05:02:46;3.17;;;2.20;;
30519;SDS011;17300;50.374;8.006;2024-01-16T05:05:13;4.40;;;2.00;;
30519;SDS011;17300;50.374;8.006;2024-01-16T05:07:40;4.87;;;2.00;;
30519;SDS011;17300;50.374;8.006;2024-01-16T05:10:09;4.77;;;2.20;;
30519;SDS011;17300;50.374;8.006;2024-01-16T05:12:37;5.43;;;2.20;;
30519;SDS011;17300;50.374;8.006;2024-01-16T05:15:04;3.77;;;2.00;;
30519;SDS011;17300;50.374;8.006;2024-01-16T05:17:33;3.77;;;2.17;;
30519;SDS011;17300;50.374;8.006;2024-01-16T05:20:01;4.73;;;2.07;;
30519;SDS011;17300;50.374;8.006;2024-01-16T05:22:29;3.87;;;1.83;;
30519;SDS011;17300;50.374;8.006;2024-01-16T05:24:56;4.47;;;2.10;;
30519;SDS011;17300;50.374;8.006;2024-01-16T05:27:23;6.33;;;2.50;;
30519;SDS011;17300;50.374;8.006;2024-01-16T05:29:50;3.13;;;1.87;;
30519;SDS011;17300;50.374;8.006;2024-01-16T05:32:16;4.10;;;2.17;;
30519;SDS011;17300;50.374;8.006;2024-01-16T05:34:44;3.63;;;2.27;;
30519;SDS011;17300;50.374;8.006;2024-01-16T05:37:11;2.70;;;1.97;;
30519;SDS011;17300;50.374;8.006;2024-01-16T05:39:38;5.27;;;2.33;;
30519;SDS011;17300;50.374;8.006;2024-01-16T05:42:05;3.40;;;2.40;;
30519;SDS011;17300;50.374;8.006;2024-01-16T05:44:32;3.10;;;2.43;;
30519;SDS011;17300;50.374;8.006;2024-01-16T05:46:59;3.40;;;2.40;;
30519;SDS011;17300;50.374;8.006;2024-01-16T05:49:25;5.03;;;2.70;;
30519;SDS011;17300;50.374;8.006;2024-01-16T05:51:53;4.83;;;2.37;;
30519;SDS011;17300;50.374;8.006;2024-01-16T05:54:20;5.80;;;2.40;;
30519;SDS011;17300;50.374;8.006;2024-01-16T05:56:47;3.77;;;2.10;;
30519;SDS011;17300;50.374;8.006;2024-01-16T05:59:14;3.43;;;2.47;;
30519;SDS011;17300;50.374;8.006;2024-01-16T06:01:40;3.93;;;2.20;;
30519;SDS011;17300;50.374;8.006;2024-01-16T06:04:07;3.93;;;2.10;;
30519;SDS011;17300;50.374;8.006;2024-01-16T06:06:34;2.63;;;2.07;;
30519;SDS011;17300;50.374;8.006;2024-01-16T06:09:02;3.63;;;1.90;;
30519;SDS011;17300;50.374;8.006;2024-01-16T06:11:30;4.67;;;2.20;;
30519;SDS011;17300;50.374;8.006;2024-01-16T06:13:57;3.40;;;1.97;;
30519;SDS011;17300;50.374;8.006;2024-01-16T06:16:24;2.57;;;1.97;;
30519;SDS011;17300;50.374;8.006;2024-01-16T06:18:51;2.50;;;1.93;;
30519;SDS011;17300;50.374;8.006;2024-01-16T06:21:18;3.40;;;2.27;;
30519;SDS011;17300;50.374;8.006;2024-01-16T06:23:44;3.23;;;2.10;;
30519;SDS011;17300;50.374;8.006;2024-01-16T06:26:12;5.43;;;2.53;;
30519;SDS011;17300;50.374;8.006;2024-01-16T06:28:39;4.83;;;2.20;;
30519;SDS011;17300;50.374;8.006;2024-01-16T06:31:07;4.13;;;2.20;;
30519;SDS011;17300;50.374;8.006;2024-01-16T06:33:34;3.80;;;2.20;;
30519;SDS011;17300;50.374;8.006;2024-01-16T06:36:01;3.47;;;2.27;;
30519;SDS011;17300;50.374;8.006;2024-01-16T06:38:29;4.43;;;2.50;;
30519;SDS011;17300;50.374;8.006;2024-01-16T06:40:55;6.53;;;2.80;;
30519;SDS011;17300;50.374;8.006;2024-01-16T06:43:23;3.10;;;2.30;;
30519;SDS011;17300;50.374;8.006;2024-01-16T06:45:50;3.47;;;2.33;;
30519;SDS011;17300;50.374;8.006;2024-01-16T06:48:18;3.30;;;2.27;;
30519;SDS011;17300;50.374;8.006;2024-01-16T06:50:44;5.50;;;2.60;;
30519;SDS011;17300;50.374;8.006;2024-01-16T06:53:11;2.97;;;2.20;;
30519;SDS011;17300;50.374;8.006;2024-01-16T06:55:38;4.03;;;2.57;;
30519;SDS011;17300;50.374;8.006;2024-01-16T06:58:05;3.33;;;2.30;;
30519;SDS011;17300;50.374;8.006;2024-01-16T07:00:33;3.53;;;2.23;;
30519;SDS011;17300;50.374;8.006;2024-01-16T07:02:59;5.40;;;2.60;;
30519;SDS011;17300;50.374;8.006;2024-01-16T07:05:26;3.30;;;2.17;;
30519;SDS011;17300;50.374;8.006;2024-01-16T07:07:53;3.40;;;2.00;;
30519;SDS011;17300;50.374;8.006;2024-01-16T07:10:19;2.90;;;2.30;;
30519;SDS011;17300;50.374;8.006;2024-01-16T07:12:47;4.17;;;2.90;;
30519;SDS011;17300;50.374;8.006;2024-01-16T07:15:14;3.50;;;2.60;;
30519;SDS011;17300;50.374;8.006;2024-01-16T07:17:42;3.70;;;2.33;;
30519;SDS011;17300;50.374;8.006;2024-01-16T07:20:09;2.43;;;2.00;;
30519;SDS011;17300;50.374;8.006;2024-01-16T07:22:36;3.20;;;2.00;;
30519;SDS011;17300;50.374;8.006;2024-01-16T07:25:07;3.27;;;2.13;;
30519;SDS011;17300;50.374;8.006;2024-01-16T07:30:33;4.07;;;2.13;;
30519;SDS011;17300;50.374;8.006;2024-01-16T07:33:03;4.87;;;2.40;;
30519;SDS011;17300;50.374;8.006;2024-01-16T07:35:30;2.97;;;2.03;;
30519;SDS011;17300;50.374;8.006;2024-01-16T07:37:56;4.63;;;2.27;;
30519;SDS011;17300;50.374;8.006;2024-01-16T07:40:23;3.60;;;2.20;;
30519;SDS011;17300;50.374;8.006;2024-01-16T07:42:50;3.50;;;2.10;;
30519;SDS011;17300;50.374;8.006;2024-01-16T07:45:17;4.20;;;2.23;;
30519;SDS011;17300;50.374;8.006;2024-01-16T07:47:44;2.53;;;1.90;;
30519;SDS011;17300;50.374;8.006;2024-01-16T07:50:12;2.67;;;2.00;;
30519;SDS011;17300;50.374;8.006;2024-01-16T07:52:38;3.20;;;2.20;;
30519;SDS011;17300;50.374;8.006;2024-01-16T07:55:06;3.30;;;2.60;;
30519;SDS011;17300;50.374;8.006;2024-01-16T07:57:32;2.60;;;2.27;;
30519;SDS011;17300;50.374;8.006;2024-01-16T07:59:59;3.83;;;2.20;;
30519;SDS011;17300;50.374;8.006;2024-01-16T08:02:26;3.60;;;2.03;;
30519;SDS011;17300;50.374;8.006;2024-01-16T08:04:57;3.27;;;1.93;;
30519;SDS011;17300;50.374;8.006;2024-01-16T08:07:26;4.63;;;2.30;;
30519;SDS011;17300;50.374;8.006;2024-01-16T08:09:53;4.40;;;2.60;;
30519;SDS011;17300;50.374;8.006;2024-01-16T08:12:19;4.63;;;3.53;;
30519;SDS011;17300;50.374;8.006;2024-01-16T08:14:46;8.17;;;4.90;;
30519;SDS011;17300;50.374;8.006;2024-01-16T08:17:13;8.57;;;5.03;;
30519;SDS011;17300;50.374;8.006;2024-01-16T08:19:40;5.57;;;3.60;;
30519;SDS011;17300;50.374;8.006;2024-01-16T08:22:07;7.53;;;3.27;;
30519;SDS011;17300;50.374;8.006;2024-01-16T08:24:35;4.20;;;2.93;;
30519;SDS011;17300;50.374;8.006;2024-01-16T08:27:02;4.57;;;3.00;;
30519;SDS011;17300;50.374;8.006;2024-01-16T08:29:29;3.70;;;2.60;;
30519;SDS011;17300;50.374;8.006;2024-01-16T08:31:56;5.27;;;2.70;;
30519;SDS011;17300;50.374;8.006;2024-01-16T08:34:22;3.83;;;2.23;;
30519;SDS011;17300;50.374;8.006;2024-01-16T08:36:49;3.60;;;2.67;;
30519;SDS011;17300;50.374;8.006;2024-01-16T08:39:16;3.73;;;2.20;;
30519;SDS011;17300;50.374;8.006;2024-01-16T08:41:44;4.60;;;2.00;;
30519;SDS011;17300;50.374;8.006;2024-01-16T08:44:11;2.17;;;1.70;;
30519;SDS011;17300;50.374;8.006;2024-01-16T08:46:38;3.27;;;1.97;;
30519;SDS011;17300;50.374;8.006;2024-01-16T08:49:05;3.70;;;1.90;;
30519;SDS011;17300;50.374;8.006;2024-01-16T08:51:31;4.53;;;1.83;;
30519;SDS011;17300;50.374;8.006;2024-01-16T08:53:58;4.20;;;1.50;;
30519;SDS011;17300;50.374;8.006;2024-01-16T08:56:24;3.83;;;2.00;;
30519;SDS011;17300;50.374;8.006;2024-01-16T08:58:53;3.03;;;1.70;;
30519;SDS011;17300;50.374;8.006;2024-01-16T09:01:20;2.03;;;1.60;;
30519;SDS011;17300;50.374;8.006;2024-01-16T09:03:47;3.43;;;1.90;;
30519;SDS011;17300;50.374;8.006;2024-01-16T09:06:13;2.83;;;1.60;;
30519;SDS011;17300;50.374;8.006;2024-01-16T09:08:40;3.87;;;1.83;;
30519;SDS011;17300;50.374;8.006;2024-01-16T09:11:09;1.83;;;1.60;;
30519;SDS011;17300;50.374;8.006;2024-01-16T09:13:43;3.33;;;1.70;;
30519;SDS011;17300;50.374;8.006;2024-01-16T09:19:38;3.27;;;1.90;;
30519;SDS011;17300;50.374;8.006;2024-01-16T09:22:06;3.20;;;1.80;;
30519;SDS011;17300;50.374;8.006;2024-01-16T09:24:33;2.57;;;1.50;;
30519;SDS011;17300;50.374;8.006;2024-01-16T09:27:00;3.33;;;1.50;;
30519;SDS011;17300;50.374;8.006;2024-01-16T09:29:31;3.33;;;1.60;;
30519;SDS011;17300;50.374;8.006;2024-01-16T09:31:58;2.50;;;1.40;;
30519;SDS011;17300;50.374;8.006;2024-01-16T09:34:25;3.10;;;1.77;;
30519;SDS011;17300;50.374;8.006;2024-01-16T09:36:55;3.30;;;1.50;;
30519;SDS011;17300;50.374;8.006;2024-01-16T09:39:24;3.73;;;1.57;;
30519;SDS011;17300;50.374;8.006;2024-01-16T09:41:50;3.53;;;1.60;;
30519;SDS011;17300;50.374;8.006;2024-01-16T09:44:18;2.87;;;1.50;;
30519;SDS011;17300;50.374;8.006;2024-01-16T09:46:46;1.87;;;1.50;;
30519;SDS011;17300;50.374;8.006;2024-01-16T09:49:16;2.77;;;1.47;;
30519;SDS011;17300;50.374;8.006;2024-01-16T09:51:46;2.60;;;1.60;;
30519;SDS011;17300;50.374;8.006;2024-01-16T09:54:14;6.10;;;1.73;;
30519;SDS011;17300;50.374;8.006;2024-01-16T09:56:41;3.20;;;2.00;;
30519;SDS011;17300;50.374;8.006;2024-01-16T09:59:10;3.73;;;2.17;;
30519;SDS011;17300;50.374;8.006;2024-01-16T10:01:43;2.63;;;1.67;;
30519;SDS011;17300;50.374;8.006;2024-01-16T10:04:11;3.53;;;1.87;;
30519;SDS011;17300;50.374;8.006;2024-01-16T10:06:38;1.50;;;1.40;;
30519;SDS011;17300;50.374;8.006;2024-01-16T10:09:05;3.30;;;1.50;;
30519;SDS011;17300;50.374;8.006;2024-01-16T10:11:34;2.83;;;1.70;;
30519;SDS011;17300;50.374;8.006;2024-01-16T10:14:01;2.33;;;1.40;;
30519;SDS011;17300;50.374;8.006;2024-01-16T10:19:23;2.90;;;1.50;;
30519;SDS011;17300;50.374;8.006;2024-01-16T10:21:50;1.90;;;1.50;;
30519;SDS011;17300;50.374;8.006;2024-01-16T10:24:17;2.33;;;1.57;;
30519;SDS011;17300;50.374;8.006;2024-01-16T10:26:45;2.43;;;1.63;;
30519;SDS011;17300;50.374;8.006;2024-01-16T10:29:23;2.80;;;1.50;;
30519;SDS011;17300;50.374;8.006;2024-01-16T10:31:50;3.10;;;1.77;;
30519;SDS011;17300;50.374;8.006;2024-01-16T10:34:20;2.67;;;1.60;;
30519;SDS011;17300;50.374;8.006;2024-01-16T10:36:48;1.70;;;1.60;;
30519;SDS011;17300;50.374;8.006;2024-01-16T10:39:16;3.30;;;1.80;;
30519;SDS011;17300;50.374;8.006;2024-01-16T10:41:50;3.17;;;1.83;;
30519;SDS011;17300;50.374;8.006;2024-01-16T10:44:21;2.10;;;1.50;;
30519;SDS011;17300;50.374;8.006;2024-01-16T10:46:48;2.30;;;1.37;;
30519;SDS011;17300;50.374;8.006;2024-01-16T10:49:14;2.13;;;1.57;;
30519;SDS011;17300;50.374;8.006;2024-01-16T10:51:42;2.90;;;1.33;;
30519;SDS011;17300;50.374;8.006;2024-01-16T10:54:12;2.67;;;1.53;;
30519;SDS011;17300;50.374;8.006;2024-01-16T10:56:41;3.07;;;1.37;;
30519;SDS011;17300;50.374;8.006;2024-01-16T10:59:16;2.53;;;1.33;;
30519;SDS011;17300;50.374;8.006;2024-01-16T11:01:45;2.57;;;1.27;;
30519;SDS011;17300;50.374;8.006;2024-01-16T11:04:17;3.10;;;1.60;;
30519;SDS011;17300;50.374;8.006;2024-01-16T11:06:46;2.20;;;1.50;;
30519;SDS011;17300;50.374;8.006;2024-01-16T11:09:13;4.93;;;1.70;;
30519;SDS011;17300;50.374;8.006;2024-01-16T11:11:41;1.67;;;1.37;;
30519;SDS011;17300;50.374;8.006;2024-01-16T11:14:10;3.03;;;1.57;;
30519;SDS011;17300;50.374;8.006;2024-01-16T11:16:40;2.63;;;1.50;;
30519;SDS011;17300;50.374;8.006;2024-01-16T11:19:08;2.33;;;1.50;;
30519;SDS011;17300;50.374;8.006;2024-01-16T11:21:36;3.83;;;1.60;;
30519;SDS011;17300;50.374;8.006;2024-01-16T11:24:04;2.23;;;1.47;;
30519;SDS011;17300;50.374;8.006;2024-01-16T11:26:32;2.13;;;1.40;;
30519;SDS011;17300;50.374;8.006;2024-01-16T11:32:04;1.20;;;1.00;;
30519;SDS011;17300;50.374;8.006;2024-01-16T11:37:24;2.73;;;1.40;;
30519;SDS011;17300;50.374;8.006;2024-01-16T11:40:06;2.80;;;1.23;;
30519;SDS011;17300;50.374;8.006;2024-01-16T11:42:47;2.53;;;1.27;;
30519;SDS011;17300;50.374;8.006;2024-01-16T11:48:16;2.20;;;1.23;;
30519;SDS011;17300;50.374;8.006;2024-01-16T11:50:44;2.80;;;1.37;;
30519;SDS011;17300;50.374;8.006;2024-01-16T11:56:08;2.90;;;1.43;;
30519;SDS011;17300;50.374;8.006;2024-01-16T11:58:44;2.87;;;1.40;;
30519;SDS011;17300;50.374;8.006;2024-01-16T12:01:14;2.10;;;1.30;;
30519;SDS011;17300;50.374;8.006;2024-01-16T12:03:46;2.90;;;1.50;;
30519;SDS011;17300;50.374;8.006;2024-01-16T12:06:15;3.40;;;1.43;;
30519;SDS011;17300;50.374;8.006;2024-01-16T12:08:42;3.33;;;1.37;;
30519;SDS011;17300;50.374;8.006;2024-01-16T12:11:09;1.67;;;1.30;;
30519;SDS011;17300;50.374;8.006;2024-01-16T12:13:37;2.57;;;1.70;;
30519;SDS011;17300;50.374;8.006;2024-01-16T12:16:04;2.60;;;1.37;;
30519;SDS011;17300;50.374;8.006;2024-01-16T12:18:31;2.67;;;1.43;;
30519;SDS011;17300;50.374;8.006;2024-01-16T12:21:05;1.57;;;1.10;;
30519;SDS011;17300;50.374;8.006;2024-01-16T12:23:35;3.60;;;1.53;;
30519;SDS011;17300;50.374;8.006;2024-01-16T12:26:02;2.37;;;1.20;;
30519;SDS011;17300;50.374;8.006;2024-01-16T12:28:28;2.67;;;1.37;;
30519;SDS011;17300;50.374;8.006;2024-01-16T12:30:56;2.20;;;1.10;;
30519;SDS011;17300;50.374;8.006;2024-01-16T12:33:22;2.33;;;1.50;;
30519;SDS011;17300;50.374;8.006;2024-01-16T12:35:49;2.10;;;1.10;;
30519;SDS011;17300;50.374;8.006;2024-01-16T12:38:17;3.00;;;1.77;;
30519;SDS011;17300;50.374;8.006;2024-01-16T12:40:44;1.43;;;1.17;;
30519;SDS011;17300;50.374;8.006;2024-01-16T12:43:14;2.33;;;1.40;;
30519;SDS011;17300;50.374;8.006;2024-01-16T12:45:43;3.17;;;1.50;;
30519;SDS011;17300;50.374;8.006;2024-01-16T12:48:10;1.60;;;1.30;;
30519;SDS011;17300;50.374;8.006;2024-01-16T12:50:37;2.00;;;1.70;;
30519;SDS011;17300;50.374;8.006;2024-01-16T12:53:04;5.43;;;1.40;;
30519;SDS011;17300;50.374;8.006;2024-01-16T12:55:34;2.17;;;1.23;;
30519;SDS011;17300;50.374;8.006;2024-01-16T12:58:15;2.47;;;1.40;;
30519;SDS011;17300;50.374;8.006;2024-01-16T13:00:42;1.63;;;1.20;;
30519;SDS011;17300;50.374;8.006;2024-01-16T13:03:14;3.70;;;1.40;;
30519;SDS011;17300;50.374;8.006;2024-01-16T13:05:42;1.67;;;1.30;;
30519;SDS011;17300;50.374;8.006;2024-01-16T13:08:09;1.87;;;1.43;;
30519;SDS011;17300;50.374;8.006;2024-01-16T13:10:44;1.60;;;1.40;;
30519;SDS011;17300;50.374;8.006;2024-01-16T13:13:13;3.60;;;1.63;;
30519;SDS011;17300;50.374;8.006;2024-01-16T13:15:42;1.60;;;1.20;;
30519;SDS011;17300;50.374;8.006;2024-01-16T13:18:17;2.80;;;1.30;;
30519;SDS011;17300;50.374;8.006;2024-01-16T13:20:44;3.73;;;1.57;;
30519;SDS011;17300;50.374;8.006;2024-01-16T13:23:12;2.93;;;1.50;;
30519;SDS011;17300;50.374;8.006;2024-01-16T13:25:41;2.63;;;1.70;;
30519;SDS011;17300;50.374;8.006;2024-01-16T13:28:10;2.63;;;1.37;;
30519;SDS011;17300;50.374;8.006;2024-01-16T13:30:37;2.47;;;1.37;;
30519;SDS011;17300;50.374;8.006;2024-01-16T13:33:04;1.87;;;1.20;;
30519;SDS011;17300;50.374;8.006;2024-01-16T13:35:31;2.53;;;1.47;;
30519;SDS011;17300;50.374;8.006;2024-01-16T13:38:00;1.37;;;1.23;;
30519;SDS011;17300;50.374;8.006;2024-01-16T13:40:28;2.73;;;1.47;;
30519;SDS011;17300;50.374;8.006;2024-01-16T13:42:57;2.30;;;1.10;;
30519;SDS011;17300;50.374;8.006;2024-01-16T13:45:23;2.40;;;1.07;;
30519;SDS011;17300;50.374;8.006;2024-01-16T13:47:50;1.93;;;1.30;;
30519;SDS011;17300;50.374;8.006;2024-01-16T13:50:17;1.93;;;1.30;;
30519;SDS011;17300;50.374;8.006;2024-01-16T13:52:43;3.33;;;1.40;;
30519;SDS011;17300;50.374;8.006;2024-01-16T13:55:10;1.93;;;1.40;;
30519;SDS011;17300;50.374;8.006;2024-01-16T13:57:37;1.90;;;1.20;;
30519;SDS011;17300;50.374;8.006;2024-01-16T14:00:06;1.50;;;1.20;;
30519;SDS011;17300;50.374;8.006;2024-01-16T14:02:38;3.33;;;1.40;;
30519;SDS011;17300;50.374;8.006;2024-01-16T14:05:06;1.90;;;1.20;;
30519;SDS011;17300;50.374;8.006;2024-01-16T14:07:35;2.90;;;1.40;;
30519;SDS011;17300;50.374;8.006;2024-01-16T14:10:02;2.03;;;1.10;;
30519;SDS011;17300;50.374;8.006;2024-01-16T14:12:31;1.37;;;1.07;;
30519;SDS011;17300;50.374;8.006;2024-01-16T14:14:58;2.43;;;1.00;;
30519;SDS011;17300;50.374;8.006;2024-01-16T14:17:26;1.67;;;0.90;;
30519;SDS011;17300;50.374;8.006;2024-01-16T14:19:53;1.83;;;1.50;;
30519;SDS011;17300;50.374;8.006;2024-01-16T14:22:20;4.20;;;1.47;;
30519;SDS011;17300;50.374;8.006;2024-01-16T14:24:46;2.53;;;1.30;;
30519;SDS011;17300;50.374;8.006;2024-01-16T14:27:16;2.03;;;1.10;;
30519;SDS011;17300;50.374;8.006;2024-01-16T14:29:42;3.00;;;1.10;;
30519;SDS011;17300;50.374;8.006;2024-01-16T14:32:09;5.20;;;1.40;;
30519;SDS011;17300;50.374;8.006;2024-01-16T14:34:37;1.57;;;1.27;;
30519;SDS011;17300;50.374;8.006;2024-01-16T14:37:04;1.60;;;1.20;;
30519;SDS011;17300;50.374;8.006;2024-01-16T14:39:31;2.93;;;1.33;;
30519;SDS011;17300;50.374;8.006;2024-01-16T14:41:57;2.17;;;1.53;;
30519;SDS011;17300;50.374;8.006;2024-01-16T14:44:24;2.30;;;1.23;;
30519;SDS011;17300;50.374;8.006;2024-01-16T14:46:51;3.07;;;1.77;;
30519;SDS011;17300;50.374;8.006;2024-01-16T14:49:19;2.30;;;1.30;;
30519;SDS011;17300;50.374;8.006;2024-01-16T14:51:47;3.27;;;1.30;;
30519;SDS011;17300;50.374;8.006;2024-01-16T14:54:14;2.13;;;1.30;;
30519;SDS011;17300;50.374;8.006;2024-01-16T14:56:40;1.20;;;1.10;;
30519;SDS011;17300;50.374;8.006;2024-01-16T14:59:07;2.63;;;1.40;;
30519;SDS011;17300;50.374;8.006;2024-01-16T15:01:34;1.43;;;1.07;;
30519;SDS011;17300;50.374;8.006;2024-01-16T15:04:01;1.43;;;1.23;;
30519;SDS011;17300;50.374;8.006;2024-01-16T15:06:28;2.00;;;1.20;;
30519;SDS011;17300;50.374;8.006;2024-01-16T15:08:56;1.83;;;1.10;;
30519;SDS011;17300;50.374;8.006;2024-01-16T15:11:22;1.83;;;1.00;;